Time;durP1;ratioP1;P1;durP2;ratioP2;P2;SDS_P1;SDS_P2;PMS_P1;PMS_P2;Temp;Humidity;BMP_temperature;BMP_pressure;BME280_temperature;BME280_humidity;BME280_pressure;Samples;Min_cycle;Max_cycle;Signal;HPM_P1;HPM_P2
2023/12/08 00:00:57;;;;;;;24.87;17.40;;;;;;;;;;5079172;28;20578;-59
2023/12/08 00:03:24;;;;;;;23.80;16.63;;;;;;;;;;5078815;28;21358;-58
2023/12/08 00:05:50;;;;;;;26.43;16.93;;;;;;;;;;5077924;28;20480;-58
2023/12/08 00:08:16;;;;;;;23.73;15.57;;;;;;;;;;5071207;28;20454;-58
2023/12/08 00:10:44;;;;;;;23.97;15.93;;;;;;;;;;5075463;28;20527;-59
2023/12/08 00:13:11;;;;;;;26.13;16.40;;;;;;;;;;5079364;28;20531;-59
2023/12/08 00:15:37;;;;;;;23.03;15.30;;;;;;;;;;5074997;28;21063;-59
2023/12/08 00:18:03;;;;;;;24.33;17.50;;;;;;;;;;5078915;28;20486;-59
2023/12/08 00:20:30;;;;;;;24.90;17.60;;;;;;;;;;5078723;28;20547;-59
2023/12/08 00:22:56;;;;;;;26.70;17.17;;;;;;;;;;5077527;28;20460;-59
2023/12/08 00:25:22;;;;;;;23.87;16.17;;;;;;;;;;5079447;28;20479;-58
2023/12/08 00:27:50;;;;;;;22.67;15.40;;;;;;;;;;5075716;28;21059;-59
2023/12/08 00:30:17;;;;;;;25.60;17.10;;;;;;;;;;5077156;28;20486;-59
2023/12/08 00:32:43;;;;;;;23.20;15.23;;;;;;;;;;5075039;28;20459;-59
2023/12/08 00:35:09;;;;;;;20.93;15.87;;;;;;;;;;5077707;28;20482;-59
2023/12/08 00:37:36;;;;;;;23.60;15.80;;;;;;;;;;5077560;28;20543;-59
2023/12/08 00:40:05;;;;;;;23.90;17.47;;;;;;;;;;5077795;28;20554;-59
2023/12/08 00:42:31;;;;;;;25.23;17.93;;;;;;;;;;5078800;28;20766;-59
2023/12/08 00:44:59;;;;;;;21.67;17.07;;;;;;;;;;5074132;28;20482;-58
2023/12/08 00:47:25;;;;;;;16.60;13.20;;;;;;;;;;5078576;28;20462;-59
2023/12/08 00:49:52;;;;;;;20.40;14.20;;;;;;;;;;5078040;28;20447;-58
2023/12/08 00:52:18;;;;;;;21.90;15.37;;;;;;;;;;5077595;28;20454;-58
2023/12/08 00:54:44;;;;;;;20.23;14.93;;;;;;;;;;5074134;28;20476;-58
2023/12/08 00:57:11;;;;;;;22.57;15.60;;;;;;;;;;5078907;28;20505;-58
2023/12/08 00:59:37;;;;;;;22.47;14.93;;;;;;;;;;5077586;28;20510;-58
2023/12/08 01:02:05;;;;;;;25.73;15.93;;;;;;;;;;5077768;28;20552;-58
2023/12/08 01:04:31;;;;;;;22.10;15.60;;;;;;;;;;5075088;28;20471;-59
2023/12/08 01:06:58;;;;;;;24.93;16.60;;;;;;;;;;5075051;28;20509;-58
2023/12/08 01:09:24;;;;;;;19.93;17.43;;;;;;;;;;5077795;28;20502;-58
2023/12/08 01:11:51;;;;;;;24.67;17.27;;;;;;;;;;5075096;28;20452;-58
2023/12/08 01:14:17;;;;;;;21.33;15.13;;;;;;;;;;5073016;28;20472;-58
2023/12/08 01:16:44;;;;;;;23.00;15.87;;;;;;;;;;5068286;28;20542;-58
2023/12/08 01:19:12;;;;;;;22.13;16.70;;;;;;;;;;5077405;28;21053;-58
2023/12/08 01:21:39;;;;;;;21.97;14.57;;;;;;;;;;5077056;28;20999;-58
2023/12/08 01:24:05;;;;;;;21.80;15.50;;;;;;;;;;5076522;28;21382;-58
2023/12/08 01:26:32;;;;;;;20.60;16.47;;;;;;;;;;5077650;28;20472;-58
2023/12/08 01:28:58;;;;;;;21.80;17.20;;;;;;;;;;5076817;28;20964;-59
2023/12/08 01:31:25;;;;;;;21.03;15.20;;;;;;;;;;5075965;28;20483;-59
2023/12/08 01:33:51;;;;;;;26.53;15.50;;;;;;;;;;5070021;28;20522;-59
2023/12/08 01:36:19;;;;;;;25.07;16.57;;;;;;;;;;5069555;28;20892;-59
2023/12/08 01:38:47;;;;;;;22.10;15.23;;;;;;;;;;5076706;28;20555;-58
2023/12/08 01:41:13;;;;;;;22.77;15.23;;;;;;;;;;5077341;28;20574;-59
2023/12/08 01:43:40;;;;;;;24.17;16.00;;;;;;;;;;5077534;28;20523;-59
2023/12/08 01:46:07;;;;;;;22.37;15.93;;;;;;;;;;5075716;28;20528;-58
2023/12/08 01:48:33;;;;;;;19.67;15.60;;;;;;;;;;5077612;28;20506;-58
2023/12/08 01:51:03;;;;;;;20.77;13.93;;;;;;;;;;5077233;28;20516;-59
2023/12/08 01:53:30;;;;;;;26.53;16.50;;;;;;;;;;5077520;28;20693;-58
2023/12/08 01:55:57;;;;;;;21.73;15.23;;;;;;;;;;5076888;28;20451;-58
2023/12/08 01:58:24;;;;;;;22.43;16.70;;;;;;;;;;5069538;28;20481;-59
2023/12/08 02:00:51;;;;;;;23.80;16.00;;;;;;;;;;5074100;28;20571;-59
2023/12/08 02:03:18;;;;;;;22.73;14.77;;;;;;;;;;5077939;28;20459;-58
2023/12/08 02:05:48;;;;;;;22.13;15.23;;;;;;;;;;5077648;28;20532;-58
2023/12/08 02:08:14;;;;;;;21.43;16.00;;;;;;;;;;5075777;28;20456;-58
2023/12/08 02:10:42;;;;;;;20.60;15.07;;;;;;;;;;5075897;28;20456;-59
2023/12/08 02:13:09;;;;;;;22.10;16.00;;;;;;;;;;5073020;28;20455;-58
2023/12/08 02:15:36;;;;;;;20.77;15.37;;;;;;;;;;5076147;28;20455;-58
2023/12/08 02:18:02;;;;;;;20.70;16.03;;;;;;;;;;5072317;28;20534;-59
2023/12/08 02:20:29;;;;;;;24.40;15.83;;;;;;;;;;5073407;28;20471;-59
2023/12/08 02:22:56;;;;;;;22.90;15.70;;;;;;;;;;5075725;28;20576;-59
2023/12/08 02:25:24;;;;;;;20.60;15.57;;;;;;;;;;5076939;28;20484;-58
2023/12/08 02:27:50;;;;;;;21.33;15.50;;;;;;;;;;5077205;28;20468;-58
2023/12/08 02:30:17;;;;;;;23.03;15.70;;;;;;;;;;5077637;28;20474;-58
2023/12/08 02:32:46;;;;;;;23.10;15.40;;;;;;;;;;5075908;28;20460;-58
2023/12/08 02:35:14;;;;;;;24.80;15.00;;;;;;;;;;5070498;28;20532;-59
2023/12/08 02:37:42;;;;;;;21.17;14.80;;;;;;;;;;5072666;28;20460;-59
2023/12/08 02:40:09;;;;;;;23.47;16.63;;;;;;;;;;5076576;28;20464;-58
2023/12/08 02:42:37;;;;;;;18.60;14.30;;;;;;;;;;5072762;28;20495;-58
2023/12/08 02:45:03;;;;;;;18.10;14.70;;;;;;;;;;5076752;28;20479;-59
2023/12/08 02:47:30;;;;;;;18.90;15.20;;;;;;;;;;5072068;28;20456;-58
2023/12/08 02:49:56;;;;;;;20.57;14.37;;;;;;;;;;5076061;28;20873;-58
2023/12/08 02:52:23;;;;;;;19.60;15.20;;;;;;;;;;5071687;28;20459;-58
2023/12/08 02:54:49;;;;;;;20.63;16.37;;;;;;;;;;5072977;28;20981;-58
2023/12/08 02:57:15;;;;;;;18.33;14.40;;;;;;;;;;5075461;28;20514;-59
2023/12/08 02:59:43;;;;;;;22.13;14.87;;;;;;;;;;5075915;28;20480;-59
2023/12/08 03:02:10;;;;;;;21.07;14.20;;;;;;;;;;5076075;28;20488;-59
2023/12/08 03:04:36;;;;;;;17.50;13.83;;;;;;;;;;5077204;28;20444;-58
2023/12/08 03:07:02;;;;;;;20.47;14.23;;;;;;;;;;5076242;28;20516;-58
2023/12/08 03:09:29;;;;;;;16.67;13.57;;;;;;;;;;5071244;28;20535;-58
2023/12/08 03:11:55;;;;;;;16.70;13.50;;;;;;;;;;5072988;28;20522;-58
2023/12/08 03:14:22;;;;;;;18.43;14.00;;;;;;;;;;5073811;28;20623;-59
2023/12/08 03:16:49;;;;;;;19.63;14.03;;;;;;;;;;5069148;28;20467;-59
2023/12/08 03:19:16;;;;;;;16.70;13.00;;;;;;;;;;5076328;28;20483;-58
2023/12/08 03:21:42;;;;;;;18.23;13.03;;;;;;;;;;5074660;28;20492;-58
2023/12/08 03:24:08;;;;;;;20.80;14.07;;;;;;;;;;5075118;28;20519;-58
2023/12/08 03:26:35;;;;;;;17.53;15.50;;;;;;;;;;5076952;28;20475;-59
2023/12/08 03:29:01;;;;;;;18.60;14.87;;;;;;;;;;5076502;28;20479;-58
2023/12/08 03:31:30;;;;;;;18.57;14.93;;;;;;;;;;5080216;28;20487;-58
2023/12/08 03:33:58;;;;;;;18.20;13.70;;;;;;;;;;5077684;28;20455;-58
2023/12/08 03:36:24;;;;;;;18.20;14.20;;;;;;;;;;5079650;28;20447;-58
2023/12/08 03:38:51;;;;;;;16.37;13.10;;;;;;;;;;5076755;28;20479;-58
2023/12/08 03:41:17;;;;;;;15.60;13.90;;;;;;;;;;5079922;28;20486;-58
2023/12/08 03:43:43;;;;;;;14.73;13.00;;;;;;;;;;5079862;28;20995;-58
2023/12/08 03:46:10;;;;;;;14.43;11.90;;;;;;;;;;5076868;28;20467;-59
2023/12/08 03:48:36;;;;;;;13.83;12.47;;;;;;;;;;5078446;28;20486;-59
2023/12/08 03:51:05;;;;;;;14.37;11.20;;;;;;;;;;5073262;28;20459;-58
2023/12/08 03:53:31;;;;;;;11.60;10.60;;;;;;;;;;5078748;28;20468;-58
2023/12/08 03:55:57;;;;;;;13.60;11.27;;;;;;;;;;5079470;28;20472;-58
2023/12/08 03:58:24;;;;;;;13.03;11.63;;;;;;;;;;5079000;28;20487;-58
2023/12/08 04:00:50;;;;;;;13.90;11.67;;;;;;;;;;5078807;28;20487;-58
2023/12/08 04:03:17;;;;;;;13.17;11.87;;;;;;;;;;5077496;28;20480;-58
2023/12/08 04:05:43;;;;;;;11.80;10.60;;;;;;;;;;5079494;28;20516;-58
2023/12/08 04:08:11;;;;;;;12.77;11.53;;;;;;;;;;5073561;28;20532;-58
2023/12/08 04:10:38;;;;;;;12.40;11.20;;;;;;;;;;5074169;28;20972;-58
2023/12/08 04:13:04;;;;;;;12.90;11.43;;;;;;;;;;5078529;28;20932;-58
2023/12/08 04:15:30;;;;;;;15.43;11.70;;;;;;;;;;5075110;28;20475;-58
2023/12/08 04:17:57;;;;;;;12.73;11.53;;;;;;;;;;5079003;28;20496;-58
2023/12/08 04:20:25;;;;;;;13.47;11.77;;;;;;;;;;5079279;28;20538;-58
2023/12/08 04:22:52;;;;;;;12.37;11.17;;;;;;;;;;5079127;28;20504;-58
2023/12/08 04:25:19;;;;;;;14.53;12.60;;;;;;;;;;5078170;28;20520;-59
2023/12/08 04:27:46;;;;;;;14.57;12.97;;;;;;;;;;5076424;28;20556;-58
2023/12/08 04:30:12;;;;;;;15.93;11.77;;;;;;;;;;5077588;28;20628;-59
2023/12/08 04:32:39;;;;;;;12.40;11.20;;;;;;;;;;5074459;28;20925;-59
2023/12/08 04:35:06;;;;;;;13.20;11.83;;;;;;;;;;5071191;28;20456;-59
2023/12/08 04:37:33;;;;;;;14.93;12.17;;;;;;;;;;5077788;28;20464;-59
2023/12/08 04:39:59;;;;;;;12.10;11.00;;;;;;;;;;5078357;28;20512;-58
2023/12/08 04:42:27;;;;;;;12.83;11.50;;;;;;;;;;5074894;28;20522;-59
2023/12/08 04:44:53;;;;;;;13.67;11.97;;;;;;;;;;5076645;28;20531;-59
2023/12/08 04:47:20;;;;;;;13.60;12.30;;;;;;;;;;5066256;28;20523;-59
2023/12/08 04:49:46;;;;;;;13.43;11.97;;;;;;;;;;5075697;28;20503;-59
2023/12/08 04:52:13;;;;;;;13.67;12.13;;;;;;;;;;5077408;28;20509;-59
2023/12/08 04:54:39;;;;;;;15.10;12.13;;;;;;;;;;5078041;28;20478;-58
2023/12/08 04:57:06;;;;;;;14.50;11.70;;;;;;;;;;5078268;28;20539;-59
2023/12/08 04:59:33;;;;;;;15.03;12.90;;;;;;;;;;5078830;28;20448;-58
2023/12/08 05:02:00;;;;;;;15.27;12.33;;;;;;;;;;5077966;28;20531;-58
2023/12/08 05:04:26;;;;;;;14.93;13.37;;;;;;;;;;5077501;28;20865;-58
2023/12/08 05:06:52;;;;;;;14.27;12.50;;;;;;;;;;5076632;28;20490;-58
2023/12/08 05:09:19;;;;;;;15.17;12.97;;;;;;;;;;5077523;28;20480;-58
2023/12/08 05:11:46;;;;;;;15.80;13.13;;;;;;;;;;5078233;28;20491;-58
2023/12/08 05:14:12;;;;;;;14.63;13.00;;;;;;;;;;5068661;28;21039;-59
2023/12/08 05:16:40;;;;;;;18.10;14.20;;;;;;;;;;5072265;28;20483;-59
2023/12/08 05:19:06;;;;;;;17.70;15.80;;;;;;;;;;5076324;28;20551;-59
2023/12/08 05:21:33;;;;;;;17.57;15.33;;;;;;;;;;5075554;28;20488;-59
2023/12/08 05:23:59;;;;;;;16.77;14.60;;;;;;;;;;5069389;28;20521;-59
2023/12/08 05:26:25;;;;;;;17.10;14.20;;;;;;;;;;5073350;28;20487;-58
2023/12/08 05:28:52;;;;;;;18.57;14.60;;;;;;;;;;5071591;28;21031;-59
2023/12/08 05:31:18;;;;;;;19.43;15.17;;;;;;;;;;5075738;28;20509;-59
2023/12/08 05:33:46;;;;;;;19.00;15.70;;;;;;;;;;5068751;28;20440;-58
2023/12/08 05:36:12;;;;;;;18.90;14.40;;;;;;;;;;5070027;28;20456;-59
2023/12/08 05:38:39;;;;;;;16.90;14.50;;;;;;;;;;5071286;28;20526;-58
2023/12/08 05:41:07;;;;;;;18.90;15.37;;;;;;;;;;5077494;28;20892;-58
2023/12/08 05:43:33;;;;;;;19.10;14.57;;;;;;;;;;5072916;28;20491;-59
2023/12/08 05:46:00;;;;;;;16.13;14.43;;;;;;;;;;5073393;28;20516;-58
2023/12/08 05:48:26;;;;;;;20.83;18.50;;;;;;;;;;5072075;28;20546;-58
2023/12/08 05:50:54;;;;;;;17.87;16.00;;;;;;;;;;5073514;28;20456;-58
2023/12/08 05:53:21;;;;;;;18.60;16.47;;;;;;;;;;5073855;28;20531;-58
2023/12/08 05:55:47;;;;;;;17.90;16.03;;;;;;;;;;5077638;28;21190;-58
2023/12/08 05:58:13;;;;;;;18.10;16.30;;;;;;;;;;5076408;28;20527;-58
2023/12/08 06:00:41;;;;;;;16.30;13.43;;;;;;;;;;5077788;28;20480;-59
2023/12/08 06:03:07;;;;;;;16.20;13.80;;;;;;;;;;5076360;28;20521;-58
2023/12/08 06:05:33;;;;;;;16.00;14.03;;;;;;;;;;5077525;28;21011;-58
2023/12/08 06:08:01;;;;;;;16.70;13.40;;;;;;;;;;5076492;28;20474;-59
2023/12/08 06:10:28;;;;;;;18.40;14.33;;;;;;;;;;5076172;28;20452;-59
2023/12/08 06:12:54;;;;;;;19.03;16.30;;;;;;;;;;5074128;28;20467;-58
2023/12/08 06:15:20;;;;;;;21.77;19.40;;;;;;;;;;5073701;28;20452;-58
2023/12/08 06:17:47;;;;;;;24.50;22.10;;;;;;;;;;5070206;28;20516;-58
2023/12/08 06:20:14;;;;;;;14.93;12.90;;;;;;;;;;5068543;28;20443;-58
2023/12/08 06:22:40;;;;;;;19.20;15.93;;;;;;;;;;5072481;28;20487;-58
2023/12/08 06:25:09;;;;;;;19.40;13.63;;;;;;;;;;5075693;28;20480;-59
2023/12/08 06:27:36;;;;;;;19.27;14.77;;;;;;;;;;5075466;28;20479;-58
2023/12/08 06:30:03;;;;;;;19.13;14.47;;;;;;;;;;5066950;28;20484;-59
2023/12/08 06:32:30;;;;;;;17.10;15.30;;;;;;;;;;5067689;28;20845;-58
2023/12/08 06:34:56;;;;;;;16.27;13.13;;;;;;;;;;5070087;28;20462;-58
2023/12/08 06:37:23;;;;;;;19.23;15.10;;;;;;;;;;5067363;28;20980;-58
2023/12/08 06:39:49;;;;;;;15.47;13.57;;;;;;;;;;5068816;28;20559;-58
2023/12/08 06:42:17;;;;;;;20.30;15.90;;;;;;;;;;5065906;28;20523;-58
2023/12/08 06:44:43;;;;;;;17.07;15.30;;;;;;;;;;5064231;28;20476;-58
2023/12/08 06:47:10;;;;;;;19.23;14.17;;;;;;;;;;5065319;28;20511;-59
2023/12/08 06:49:36;;;;;;;16.07;14.37;;;;;;;;;;5067161;28;20472;-59
2023/12/08 06:52:03;;;;;;;17.73;15.80;;;;;;;;;;5065403;28;20466;-59
2023/12/08 06:54:29;;;;;;;21.23;16.40;;;;;;;;;;5064925;28;20483;-59
2023/12/08 06:56:55;;;;;;;18.60;14.80;;;;;;;;;;5069664;28;20483;-60
2023/12/08 06:59:23;;;;;;;17.70;14.63;;;;;;;;;;5076657;28;20517;-59
2023/12/08 07:01:50;;;;;;;20.97;16.90;;;;;;;;;;5071378;28;20515;-59
2023/12/08 07:04:16;;;;;;;22.37;15.20;;;;;;;;;;5074127;28;20595;-59
2023/12/08 07:06:44;;;;;;;44.10;39.90;;;;;;;;;;5072668;28;20479;-58
2023/12/08 07:09:11;;;;;;;24.43;16.40;;;;;;;;;;5075970;28;20509;-58
2023/12/08 07:11:37;;;;;;;21.50;14.60;;;;;;;;;;5074066;28;20448;-59
2023/12/08 07:14:04;;;;;;;21.53;15.87;;;;;;;;;;5070729;28;20522;-58
2023/12/08 07:16:31;;;;;;;23.90;15.30;;;;;;;;;;5072170;28;20852;-58
2023/12/08 07:18:58;;;;;;;20.90;13.33;;;;;;;;;;5074495;28;20495;-69
2023/12/08 07:21:24;;;;;;;20.53;14.20;;;;;;;;;;5068917;28;20458;-68
2023/12/08 07:23:51;;;;;;;20.70;14.30;;;;;;;;;;5073461;28;20479;-67
2023/12/08 07:26:18;;;;;;;18.70;14.10;;;;;;;;;;5074781;28;20515;-67
2023/12/08 07:28:45;;;;;;;21.83;14.20;;;;;;;;;;5074959;28;21010;-67
2023/12/08 07:31:12;;;;;;;23.53;15.80;;;;;;;;;;5075015;28;20531;-67
2023/12/08 07:33:40;;;;;;;19.60;13.73;;;;;;;;;;5073002;28;20452;-66
2023/12/08 07:36:06;;;;;;;24.20;14.40;;;;;;;;;;5073739;28;20567;-67
2023/12/08 07:38:33;;;;;;;21.43;15.57;;;;;;;;;;5071433;28;20590;-67
2023/12/08 07:40:59;;;;;;;23.23;13.60;;;;;;;;;;5073418;28;20457;-67
2023/12/08 07:43:26;;;;;;;22.23;16.27;;;;;;;;;;5073846;28;20568;-67
2023/12/08 07:45:53;;;;;;;23.73;16.63;;;;;;;;;;5073269;28;20444;-68
2023/12/08 07:48:20;;;;;;;22.67;16.33;;;;;;;;;;5070481;28;20490;-67
2023/12/08 07:50:48;;;;;;;25.33;16.07;;;;;;;;;;5071433;28;20475;-64
2023/12/08 07:53:14;;;;;;;22.97;13.80;;;;;;;;;;5074425;28;20452;-64
2023/12/08 07:55:41;;;;;;;22.60;14.73;;;;;;;;;;5073267;28;20510;-64
2023/12/08 07:58:07;;;;;;;21.93;15.00;;;;;;;;;;5078910;28;20494;-64
2023/12/08 08:00:34;;;;;;;27.90;19.00;;;;;;;;;;5074341;28;20939;-65
2023/12/08 08:03:00;;;;;;;28.00;16.93;;;;;;;;;;5073349;28;20557;-64
2023/12/08 08:05:27;;;;;;;27.80;18.73;;;;;;;;;;5073780;28;20448;-64
2023/12/08 08:07:54;;;;;;;33.73;21.60;;;;;;;;;;5073349;28;20495;-68
2023/12/08 08:10:21;;;;;;;28.30;19.80;;;;;;;;;;5074322;28;20547;-67
2023/12/08 08:12:47;;;;;;;35.87;21.80;;;;;;;;;;5070703;28;20463;-65
2023/12/08 08:15:14;;;;;;;29.03;17.80;;;;;;;;;;5077093;28;20452;-66
2023/12/08 08:17:40;;;;;;;27.97;18.70;;;;;;;;;;5079012;28;20470;-67
2023/12/08 08:20:07;;;;;;;25.40;17.07;;;;;;;;;;5075275;28;20473;-66
2023/12/08 08:22:34;;;;;;;25.00;16.80;;;;;;;;;;5076228;28;20463;-68
2023/12/08 08:25:02;;;;;;;29.20;17.27;;;;;;;;;;5079267;28;20838;-65
2023/12/08 08:27:28;;;;;;;28.77;16.70;;;;;;;;;;5078382;28;20444;-65
2023/12/08 08:29:55;;;;;;;30.73;19.00;;;;;;;;;;5073926;28;20466;-65
2023/12/08 08:32:21;;;;;;;23.30;16.93;;;;;;;;;;5075201;28;20451;-66
2023/12/08 08:34:48;;;;;;;30.77;19.67;;;;;;;;;;5072671;28;20514;-64
2023/12/08 08:37:14;;;;;;;30.27;18.63;;;;;;;;;;5075789;28;20479;-65
2023/12/08 08:39:41;;;;;;;23.57;16.07;;;;;;;;;;5070485;28;20493;-65
2023/12/08 08:42:09;;;;;;;25.27;15.97;;;;;;;;;;5070822;28;20484;-65
2023/12/08 08:44:36;;;;;;;32.50;20.90;;;;;;;;;;5074334;28;20496;-63
2023/12/08 08:47:03;;;;;;;29.67;19.20;;;;;;;;;;5074959;28;20447;-63
2023/12/08 08:49:29;;;;;;;33.17;20.73;;;;;;;;;;5073897;28;20456;-62
2023/12/08 08:51:56;;;;;;;38.97;22.50;;;;;;;;;;5073104;28;20468;-63
2023/12/08 08:54:22;;;;;;;26.30;17.67;;;;;;;;;;5072828;28;20456;-64
2023/12/08 08:56:48;;;;;;;32.60;22.20;;;;;;;;;;5075172;28;20471;-65
2023/12/08 08:59:16;;;;;;;36.03;22.33;;;;;;;;;;5069707;28;20466;-64
2023/12/08 09:01:43;;;;;;;41.00;22.80;;;;;;;;;;5079989;28;20447;-64
2023/12/08 09:04:09;;;;;;;32.43;20.77;;;;;;;;;;5071899;28;20518;-65
2023/12/08 09:06:36;;;;;;;32.27;20.80;;;;;;;;;;5069321;28;20553;-64
2023/12/08 09:09:03;;;;;;;32.70;19.00;;;;;;;;;;5068842;28;20447;-64
2023/12/08 09:11:30;;;;;;;32.63;20.57;;;;;;;;;;5067837;28;20485;-63
2023/12/08 09:13:57;;;;;;;32.20;18.93;;;;;;;;;;5072592;28;20452;-63
2023/12/08 09:16:24;;;;;;;40.30;24.67;;;;;;;;;;5069503;28;20472;-66
2023/12/08 09:18:51;;;;;;;33.17;23.70;;;;;;;;;;5072929;28;20498;-67
2023/12/08 09:21:17;;;;;;;35.93;22.33;;;;;;;;;;5076838;28;20476;-65
2023/12/08 09:23:44;;;;;;;36.33;21.87;;;;;;;;;;5077753;28;20522;-65
2023/12/08 09:26:10;;;;;;;51.87;35.23;;;;;;;;;;5068017;28;20471;-64
2023/12/08 09:28:37;;;;;;;32.23;19.50;;;;;;;;;;5077951;28;20500;-64
2023/12/08 09:31:03;;;;;;;34.97;20.20;;;;;;;;;;5074334;28;20527;-64
2023/12/08 09:33:31;;;;;;;56.23;38.10;;;;;;;;;;5070140;28;21039;-65
2023/12/08 09:35:58;;;;;;;37.50;20.27;;;;;;;;;;5079567;28;20443;-63
2023/12/08 09:38:24;;;;;;;52.53;37.10;;;;;;;;;;5063930;28;20531;-63
2023/12/08 09:40:51;;;;;;;36.57;23.43;;;;;;;;;;5074658;28;20475;-64
2023/12/08 09:43:19;;;;;;;30.40;17.50;;;;;;;;;;5063684;28;20666;-62
2023/12/08 09:45:46;;;;;;;31.87;18.70;;;;;;;;;;5072052;28;20485;-64
2023/12/08 09:48:13;;;;;;;33.30;21.47;;;;;;;;;;5073090;28;20448;-63
2023/12/08 09:50:41;;;;;;;42.10;27.90;;;;;;;;;;5068419;28;20472;-65
2023/12/08 09:53:08;;;;;;;31.03;20.87;;;;;;;;;;5072829;28;20543;-63
2023/12/08 09:55:37;;;;;;;34.63;22.10;;;;;;;;;;5074614;28;20495;-64
2023/12/08 09:58:04;;;;;;;32.30;19.10;;;;;;;;;;5075188;28;20452;-65
2023/12/08 10:00:32;;;;;;;30.60;20.83;;;;;;;;;;5074288;28;20515;-64
2023/12/08 10:02:59;;;;;;;32.70;20.23;;;;;;;;;;5066893;28;20467;-63
2023/12/08 10:05:27;;;;;;;43.30;24.07;;;;;;;;;;5075253;28;20524;-62
2023/12/08 10:07:56;;;;;;;32.80;19.47;;;;;;;;;;5072520;28;20516;-63
2023/12/08 10:10:24;;;;;;;34.03;23.00;;;;;;;;;;5073843;28;20522;-62
2023/12/08 10:12:50;;;;;;;30.63;20.60;;;;;;;;;;5074027;28;20494;-62
2023/12/08 10:15:17;;;;;;;50.23;37.17;;;;;;;;;;5075787;28;20507;-63
2023/12/08 10:17:46;;;;;;;27.23;16.93;;;;;;;;;;5069896;28;20476;-64
2023/12/08 10:20:13;;;;;;;32.50;21.90;;;;;;;;;;5072354;28;20644;-64
2023/12/08 10:22:49;;;;;;;29.53;18.60;;;;;;;;;;5068640;28;20487;-62
2023/12/08 10:25:18;;;;;;;51.90;35.13;;;;;;;;;;5068009;28;20511;-65
2023/12/08 10:27:46;;;;;;;70.73;42.00;;;;;;;;;;5075031;28;20455;-62
2023/12/08 10:30:14;;;;;;;37.93;23.90;;;;;;;;;;5073486;28;20450;-65
2023/12/08 10:32:41;;;;;;;28.90;19.07;;;;;;;;;;5072178;28;20463;-63
2023/12/08 10:35:10;;;;;;;46.17;31.00;;;;;;;;;;5077886;28;20454;-64
2023/12/08 10:37:36;;;;;;;28.20;17.37;;;;;;;;;;5060321;28;20453;-62
2023/12/08 10:40:03;;;;;;;27.43;18.73;;;;;;;;;;5062969;28;20504;-65
2023/12/08 10:42:32;;;;;;;50.37;32.60;;;;;;;;;;5073631;28;20469;-64
2023/12/08 10:44:58;;;;;;;26.47;18.30;;;;;;;;;;5070705;28;20494;-63
2023/12/08 10:47:25;;;;;;;32.50;20.43;;;;;;;;;;5076997;28;20554;-64
2023/12/08 10:49:53;;;;;;;36.67;25.40;;;;;;;;;;5077683;28;21219;-64
2023/12/08 10:52:22;;;;;;;81.53;51.43;;;;;;;;;;5078126;28;21281;-62
2023/12/08 10:54:49;;;;;;;28.43;19.67;;;;;;;;;;5076628;28;20511;-63
2023/12/08 10:57:15;;;;;;;26.13;16.83;;;;;;;;;;5072891;28;20456;-66
2023/12/08 10:59:44;;;;;;;31.00;19.40;;;;;;;;;;5070417;28;20515;-64
2023/12/08 11:02:17;;;;;;;24.33;16.03;;;;;;;;;;5068383;28;20444;-64
2023/12/08 11:04:44;;;;;;;36.50;26.63;;;;;;;;;;5076065;28;20590;-64
2023/12/08 11:07:13;;;;;;;26.90;17.30;;;;;;;;;;5077695;28;20459;-66
2023/12/08 11:09:40;;;;;;;29.27;17.07;;;;;;;;;;5075263;28;20448;-66
2023/12/08 11:12:07;;;;;;;28.37;17.63;;;;;;;;;;5078295;28;20482;-63
2023/12/08 11:14:36;;;;;;;30.37;20.03;;;;;;;;;;5074270;28;20531;-65
2023/12/08 11:17:06;;;;;;;30.57;21.47;;;;;;;;;;5074858;28;20447;-65
2023/12/08 11:19:33;;;;;;;29.10;19.50;;;;;;;;;;5069141;28;20444;-72
2023/12/08 11:22:00;;;;;;;27.93;19.20;;;;;;;;;;5087887;28;20535;-72
2023/12/08 11:24:27;;;;;;;45.53;37.13;;;;;;;;;;5078813;28;20897;-72
2023/12/08 11:26:55;;;;;;;32.10;20.43;;;;;;;;;;5080437;28;21029;-68
2023/12/08 11:29:24;;;;;;;52.43;42.70;;;;;;;;;;5080150;28;20579;-71
2023/12/08 11:31:55;;;;;;;28.60;18.23;;;;;;;;;;5078424;28;20507;-72
2023/12/08 11:34:25;;;;;;;44.00;30.03;;;;;;;;;;5077084;28;20447;-70
2023/12/08 11:36:51;;;;;;;30.10;18.57;;;;;;;;;;5075405;28;21009;-67
2023/12/08 11:39:37;;;;;;;32.43;17.67;;;;;;;;;;5074299;28;20555;-67
2023/12/08 11:42:03;;;;;;;26.50;17.17;;;;;;;;;;5077964;28;20436;-72
2023/12/08 11:44:33;;;;;;;28.70;18.83;;;;;;;;;;5076160;28;20567;-72
2023/12/08 11:46:59;;;;;;;27.20;17.93;;;;;;;;;;5079088;28;20543;-72
2023/12/08 11:49:27;;;;;;;30.80;20.00;;;;;;;;;;5077468;28;20447;-72
2023/12/08 11:52:11;;;;;;;32.53;23.67;;;;;;;;;;5071570;28;20937;-71
2023/12/08 11:54:58;;;;;;;29.77;20.10;;;;;;;;;;5070289;28;20480;-70
2023/12/08 11:57:24;;;;;;;37.50;24.83;;;;;;;;;;5072266;28;20455;-70
2023/12/08 11:59:51;;;;;;;29.33;17.97;;;;;;;;;;5071893;28;20480;-70
2023/12/08 12:02:17;;;;;;;30.60;20.43;;;;;;;;;;5077241;28;20882;-72
2023/12/08 12:04:45;;;;;;;29.87;18.30;;;;;;;;;;5078719;28;20483;-72
2023/12/08 12:07:11;;;;;;;38.97;26.23;;;;;;;;;;5071799;28;21012;-67
2023/12/08 12:09:39;;;;;;;30.50;18.43;;;;;;;;;;5074329;28;20525;-70
2023/12/08 12:12:10;;;;;;;39.97;24.87;;;;;;;;;;5080828;28;20444;-67
2023/12/08 12:14:37;;;;;;;37.90;22.80;;;;;;;;;;5079778;28;20444;-67
2023/12/08 12:17:03;;;;;;;41.80;28.10;;;;;;;;;;5071905;28;20470;-69
2023/12/08 12:19:30;;;;;;;33.20;23.97;;;;;;;;;;5077712;28;20452;-72
2023/12/08 12:21:58;;;;;;;31.90;19.53;;;;;;;;;;5081437;28;20551;-71
2023/12/08 12:24:24;;;;;;;35.43;24.40;;;;;;;;;;5078699;28;20949;-69
2023/12/08 12:26:51;;;;;;;32.60;25.50;;;;;;;;;;5072554;28;21171;-69
2023/12/08 12:29:17;;;;;;;27.77;20.30;;;;;;;;;;5073515;28;20460;-68
2023/12/08 12:31:44;;;;;;;32.10;20.43;;;;;;;;;;5075888;28;20479;-66
2023/12/08 12:34:11;;;;;;;30.10;18.20;;;;;;;;;;5080794;28;20463;-72
2023/12/08 12:36:38;;;;;;;28.60;19.40;;;;;;;;;;5079012;28;20436;-71
2023/12/08 12:39:05;;;;;;;32.57;18.90;;;;;;;;;;5072603;28;20957;-67
2023/12/08 12:41:32;;;;;;;38.63;22.30;;;;;;;;;;5081743;28;20444;-70
2023/12/08 12:43:59;;;;;;;31.20;19.97;;;;;;;;;;5076756;28;20494;-71
2023/12/08 12:46:26;;;;;;;42.83;31.53;;;;;;;;;;5073547;28;20988;-66
2023/12/08 12:48:53;;;;;;;28.03;18.63;;;;;;;;;;5076878;28;20480;-72
2023/12/08 12:51:31;;;;;;;25.97;18.53;;;;;;;;;;5075717;28;20442;-69
2023/12/08 12:53:57;;;;;;;31.17;20.30;;;;;;;;;;5071460;28;20897;-71
2023/12/08 12:56:25;;;;;;;31.43;18.53;;;;;;;;;;5069153;28;20479;-68
2023/12/08 12:59:02;;;;;;;26.47;18.20;;;;;;;;;;5069307;28;20456;-74
2023/12/08 13:01:28;;;;;;;29.60;18.90;;;;;;;;;;5074059;28;20467;-72
2023/12/08 13:03:55;;;;;;;32.47;23.23;;;;;;;;;;5071376;28;20464;-69
2023/12/08 13:06:29;;;;;;;31.90;18.97;;;;;;;;;;5072653;28;20544;-73
2023/12/08 13:08:56;;;;;;;42.07;27.57;;;;;;;;;;5067752;28;20502;-71
2023/12/08 13:11:22;;;;;;;29.70;20.50;;;;;;;;;;5076573;28;20732;-68
2023/12/08 13:13:50;;;;;;;30.83;20.23;;;;;;;;;;5067232;28;20970;-66
2023/12/08 13:16:17;;;;;;;33.23;21.17;;;;;;;;;;5074191;28;20448;-68
2023/12/08 13:18:46;;;;;;;32.70;20.83;;;;;;;;;;5077453;28;20490;-70
2023/12/08 13:21:12;;;;;;;30.90;20.53;;;;;;;;;;5075160;28;20799;-71
2023/12/08 13:23:39;;;;;;;34.03;20.83;;;;;;;;;;5080141;28;20901;-75
2023/12/08 13:26:07;;;;;;;33.10;19.77;;;;;;;;;;5077631;28;20483;-70
2023/12/08 13:28:33;;;;;;;29.53;18.17;;;;;;;;;;5073271;28;20520;-73
2023/12/08 13:31:01;;;;;;;28.10;17.80;;;;;;;;;;5079529;28;20486;-71
2023/12/08 13:33:27;;;;;;;31.97;20.43;;;;;;;;;;5070124;28;20539;-68
2023/12/08 13:35:54;;;;;;;37.00;21.70;;;;;;;;;;5071442;28;20507;-66
2023/12/08 13:38:20;;;;;;;35.33;19.03;;;;;;;;;;5068629;28;20498;-71
2023/12/08 13:40:47;;;;;;;32.87;19.93;;;;;;;;;;5069737;28;20582;-67
2023/12/08 13:43:13;;;;;;;36.37;20.90;;;;;;;;;;5070360;28;20455;-71
2023/12/08 13:45:40;;;;;;;30.97;18.80;;;;;;;;;;5071859;28;20650;-72
2023/12/08 13:48:08;;;;;;;30.37;18.97;;;;;;;;;;5075951;28;20459;-70
2023/12/08 13:50:35;;;;;;;34.50;20.20;;;;;;;;;;5074947;28;20476;-70
2023/12/08 13:53:01;;;;;;;30.90;18.70;;;;;;;;;;5072752;28;20475;-69
2023/12/08 13:55:28;;;;;;;56.77;36.03;;;;;;;;;;5071068;28;20475;-67
2023/12/08 13:57:54;;;;;;;32.53;19.20;;;;;;;;;;5073191;28;20495;-71
2023/12/08 14:00:20;;;;;;;32.37;18.77;;;;;;;;;;5071373;28;20487;-70
2023/12/08 14:02:47;;;;;;;36.30;20.03;;;;;;;;;;5075534;28;20495;-70
2023/12/08 14:05:15;;;;;;;29.83;18.83;;;;;;;;;;5078077;28;20874;-71
2023/12/08 14:07:41;;;;;;;37.27;20.07;;;;;;;;;;5072035;28;20467;-70
2023/12/08 14:10:09;;;;;;;32.33;19.73;;;;;;;;;;5073757;28;20466;-71
2023/12/08 14:12:36;;;;;;;39.07;21.50;;;;;;;;;;5076101;28;20517;-70
2023/12/08 14:15:04;;;;;;;40.90;20.23;;;;;;;;;;5069198;28;20455;-72